Terminal Aerodrome Forecast
Issued by NWS Sioux Falls, SD

Home | Current Version | Previous Version | Text Only | Print | Product List | Glossary On
Versions: 1 2 3 4 5 6 7 8 9 10 11 12 13 14 15
000
FTUS43 KFSD 131130
TAFHON
TAF
KHON 131130Z 1312/1412 17008KT P6SM SKC
     FM131500 18012G18KT P6SM SCT250
     FM131700 19018G25KT P6SM SCT250
     FM132300 19014KT P6SM SCT250
     FM140200 20007KT P6SM FEW250
     FM140900 27005KT P6SM SCT120=

USA.gov is the U.S. government's official web portal to all federal, state and local government web resources and services.